Ayr, ND

6:13 AM CST on March 03, 2015 (GMT -0600)
Home of the Absaraka Crows | Change Station
CLOSE
Current Station
Personal Weather Station
Location: Absaraka, ND
Elevation: 1066 ft
Nearby Weather Stations
Active Advisory: Winter Weather Advisory

Elev 1066 ft 46.98 °N, 97.39 °W | Updated 0 second ago

Snow
Snow
16.7 °F
Feels Like 2 °F
N
15.2
Wind Variable Wind from North
Gusts 15.2 mph

Today
High -- | Low -- °F
--% Chance of Precip.
Yesterday
High -- | Low -- °F
Precip. -- in
7:06 AM 6:18 PM
Waxing Gibbous, 96% visible
Pressure 29.79 in
Visibility 10.0 miles
Clouds Mostly Cloudy 1300 ft
Overcast 6000 ft
Windchill 2 °F
Dew Point 13 °F
Humidity 85%
Rainfall 0.00 in
Snow Depth Not available.
UV 0 out of 12
Pollen .10 out of 12
Air Quality Not available.
Flu Activity Not available.
METAR KBAC 031155Z AUTO 33025G30KT 10SM -SN BKN013 OVC060 M09/M11 A2979 RMK AO2 P0004

More Conditions Fewer Conditions

Pressure 29.79 in
Visibility 10.0 miles
Clouds Mostly Cloudy 1300 ft
Overcast 6000 ft
Windchill 2 °F
Dew Point 13 °F
Humidity 85%
Rainfall 0.00 in
Snow Depth Not available.
UV 0 out of 12
Pollen .10 out of 12
Air Quality Not available.
Flu Activity Not available.
METAR KBAC 031155Z AUTO 33025G30KT 10SM -SN BKN013 OVC060 M09/M11 A2979 RMK AO2 P0004

More Conditions Fewer Conditions

10-Day Weather Forecast

Almanac

Astronomy

Mar. 03, 2015 Rise Set
Actual Time
Civil Twilight
Nautical Twilight
Astronomical Twilight
Moon
Length of Visible Light
Length of Day
Tomorrow will be .
, % of the Moon is Illuminated

Today's Extremes

State Highs State Lows

Community

WunderPhotos

Upload Photos

1,802,090 photos uploaded!

WunderBlogs® & News

Nearby

Air Quality

  Air Quality AQ Index Pollutant
Not available.

Snow Depth

Station Depth Elevation

Earthquake Activity

City Distance Mag. Time & Date
Minimum magnitude displayed is 2.5.

Coastal Water Temperatures

Place Temperature

Nearby Weather Stations

Winter Weather Advisory
Statement as of 3:59 AM CST on March 03, 2015

... Winter Weather Advisory remains in effect until 6 PM CST this
evening...

* timing... through this afternoon.

* Winds... northwest winds will increase to between 30 to 35 mph
with gusts to 45 mph Tuesday.

* Visibilities... reduced to one half mile at times in open
country when light snow combines with stronger winds.

* Snow accumulations... generally one to two inches... although
there will be large variations from southeast to northwest over
short distances.

* Wind chill values... hazardous wind chills will develop tonight.

Precautionary/preparedness actions...

A Winter Weather Advisory for snow and blowing snow means that
visibilities will be limited due to a combination of falling and
blowing snow. Use caution when traveling... especially in open
County.